createdAt,value
2022-12-23T00:02:15.425Z,6.27
2022-12-23T00:04:44.674Z,17.37
2022-12-23T00:07:13.898Z,6.37
2022-12-23T00:09:43.163Z,6.10
2022-12-23T00:12:30.181Z,5.90
2022-12-23T00:15:06.582Z,6.23
2022-12-23T00:17:36.149Z,5.93
2022-12-23T00:20:05.999Z,6.93
2022-12-23T00:22:52.871Z,7.13
2022-12-23T00:25:40.392Z,6.87
2022-12-23T00:28:11.871Z,6.60
2022-12-23T00:30:46.484Z,6.63
2022-12-23T00:33:16.133Z,6.57
2022-12-23T00:35:45.565Z,6.77
2022-12-23T00:38:15.205Z,5.23
2022-12-23T00:41:01.939Z,4.73
2022-12-23T00:43:31.250Z,5.73
2022-12-23T00:46:01.926Z,5.70
2022-12-23T00:48:48.615Z,5.00
2022-12-23T00:51:17.882Z,5.27
2022-12-23T00:53:47.066Z,5.00
2022-12-23T00:56:16.402Z,5.43
2022-12-23T00:58:45.497Z,5.27
2022-12-23T01:01:33.962Z,5.43
2022-12-23T01:04:21.030Z,5.10
2022-12-23T01:06:50.325Z,4.83
2022-12-23T01:09:19.447Z,4.60
2022-12-23T01:11:48.615Z,4.60
2022-12-23T01:14:17.815Z,4.80
2022-12-23T01:16:48.784Z,4.03
2022-12-23T01:19:18.026Z,4.23
2022-12-23T01:21:47.802Z,4.03
2022-12-23T01:24:17.206Z,4.87
2022-12-23T01:26:46.440Z,5.27
2022-12-23T01:29:15.750Z,4.80
2022-12-23T01:31:45.147Z,5.00
2022-12-23T01:34:15.741Z,3.23
2022-12-23T01:36:45.096Z,3.80
2022-12-23T01:39:14.449Z,3.70
2022-12-23T01:42:01.047Z,3.40
2022-12-23T01:45:03.450Z,3.97
2022-12-23T01:47:35.696Z,3.40
2022-12-23T01:50:12.167Z,4.20
2022-12-23T01:52:44.800Z,3.57
2022-12-23T01:55:14.863Z,3.27
2022-12-23T01:57:44.468Z,3.57
2022-12-23T02:00:32.148Z,3.07
2022-12-23T02:03:19.052Z,3.10
2022-12-23T02:05:50.495Z,3.63
2022-12-23T02:08:37.870Z,2.90
2022-12-23T02:11:23.071Z,3.20
2022-12-23T02:14:08.518Z,4.00
2022-12-23T02:16:40.671Z,3.77
2022-12-23T02:19:14.519Z,3.00
2022-12-23T02:22:03.721Z,3.10
2022-12-23T02:24:57.335Z,3.40
2022-12-23T02:27:29.431Z,4.10
2022-12-23T02:30:07.495Z,3.47
2022-12-23T02:32:51.466Z,3.63
2022-12-23T02:35:26.341Z,3.90
2022-12-23T02:37:59.051Z,2.87
2022-12-23T02:40:33.644Z,3.00
2022-12-23T02:43:06.759Z,3.40
2022-12-23T02:45:38.590Z,2.70
2022-12-23T02:48:11.001Z,3.20
2022-12-23T02:50:40.652Z,3.07
2022-12-23T02:53:12.608Z,3.07
2022-12-23T02:55:43.843Z,2.90
2022-12-23T02:58:15.150Z,2.70
2022-12-23T03:00:45.339Z,2.97
2022-12-23T03:03:17.698Z,2.53
2022-12-23T03:05:48.020Z,2.77
2022-12-23T03:08:18.672Z,2.93
2022-12-23T03:10:53.286Z,2.40
2022-12-23T03:13:29.189Z,2.20
2022-12-23T03:16:03.662Z,2.53
2022-12-23T03:18:39.943Z,2.63
2022-12-23T03:21:12.146Z,2.50
2022-12-23T03:23:46.319Z,2.70
2022-12-23T03:26:19.240Z,2.70
2022-12-23T03:28:51.600Z,2.57
2022-12-23T03:31:22.734Z,2.47
2022-12-23T03:33:56.225Z,3.40
2022-12-23T03:36:26.964Z,2.90
2022-12-23T03:38:57.197Z,2.90
2022-12-23T03:41:29.677Z,3.03
2022-12-23T03:44:01.802Z,2.80
2022-12-23T03:46:32.798Z,3.20
2022-12-23T03:49:05.695Z,3.03
2022-12-23T03:51:36.328Z,2.77
2022-12-23T03:54:07.408Z,2.53
2022-12-23T03:56:38.786Z,2.77
2022-12-23T03:59:10.766Z,3.00
2022-12-23T04:01:43.370Z,3.30
2022-12-23T04:04:17.421Z,3.10
2022-12-23T04:06:51.505Z,3.33
2022-12-23T04:09:22.387Z,3.10
2022-12-23T04:11:51.791Z,2.57
2022-12-23T04:14:21.250Z,3.07
2022-12-23T04:16:51.487Z,3.00
2022-12-23T04:19:22.122Z,2.90
2022-12-23T04:21:51.422Z,2.87
2022-12-23T04:24:20.664Z,2.73
2022-12-23T04:26:50.182Z,3.03
2022-12-23T04:29:19.393Z,3.30
2022-12-23T04:31:48.917Z,3.13
2022-12-23T04:34:18.210Z,3.27
2022-12-23T04:36:49.468Z,2.60
2022-12-23T04:39:18.695Z,2.57
2022-12-23T04:41:47.830Z,2.80
2022-12-23T04:44:17.175Z,2.30
2022-12-23T04:46:46.665Z,2.90
2022-12-23T04:49:15.910Z,2.73
2022-12-23T04:51:45.135Z,2.97
2022-12-23T04:54:15.866Z,2.50
2022-12-23T04:56:45.017Z,2.80
2022-12-23T04:59:14.465Z,2.83
2022-12-23T05:01:43.840Z,2.70
2022-12-23T05:04:13.388Z,3.10
2022-12-23T05:06:42.795Z,3.00
2022-12-23T05:09:12.029Z,2.60
2022-12-23T05:11:42.715Z,2.47
2022-12-23T05:14:12.164Z,2.87
2022-12-23T05:16:42.283Z,3.63
2022-12-23T05:19:14.892Z,2.90
2022-12-23T05:21:44.030Z,3.00
2022-12-23T05:24:13.175Z,2.97
2022-12-23T05:26:47.692Z,2.67
2022-12-23T05:29:17.789Z,2.70
2022-12-23T05:31:46.944Z,2.70
2022-12-23T05:34:16.253Z,3.03
2022-12-23T05:36:45.616Z,2.90
2022-12-23T05:39:14.795Z,2.80
2022-12-23T05:41:46.005Z,2.23
2022-12-23T05:44:15.521Z,2.67
2022-12-23T05:46:44.726Z,2.63
2022-12-23T05:49:14.010Z,2.60
2022-12-23T05:51:43.113Z,2.20
2022-12-23T05:54:12.452Z,2.30
2022-12-23T05:56:41.601Z,2.63
2022-12-23T05:59:12.337Z,2.43
2022-12-23T06:01:41.738Z,2.63
2022-12-23T06:04:11.175Z,2.57
2022-12-23T06:06:40.451Z,2.40
2022-12-23T06:09:09.601Z,2.47
2022-12-23T06:11:38.976Z,5.73
2022-12-23T06:14:08.131Z,2.63
2022-12-23T06:16:38.839Z,2.50
2022-12-23T06:19:07.969Z,2.60
2022-12-23T06:21:37.319Z,1.90
2022-12-23T06:24:06.765Z,2.30
2022-12-23T06:26:36.248Z,2.70
2022-12-23T06:29:05.479Z,3.23
2022-12-23T06:31:35.001Z,2.20
2022-12-23T06:34:05.583Z,3.00
2022-12-23T06:36:34.979Z,3.90
2022-12-23T06:39:04.179Z,2.60
2022-12-23T06:41:33.777Z,2.73
2022-12-23T06:44:03.180Z,3.00
2022-12-23T06:46:32.605Z,2.70
2022-12-23T06:49:04.029Z,4.10
2022-12-23T06:51:38.445Z,3.00
2022-12-23T06:54:07.774Z,3.37
2022-12-23T06:56:36.959Z,2.33
2022-12-23T06:59:06.143Z,2.87
2022-12-23T07:01:35.355Z,2.70
2022-12-23T07:04:04.832Z,3.33
2022-12-23T07:06:34.105Z,2.77
2022-12-23T07:09:04.852Z,2.70
2022-12-23T07:11:34.739Z,2.73
2022-12-23T07:14:03.983Z,3.67
2022-12-23T07:16:33.191Z,2.87
2022-12-23T07:19:02.425Z,2.80
2022-12-23T07:21:31.672Z,3.10
2022-12-23T07:24:00.941Z,3.47
2022-12-23T07:26:31.555Z,2.90
2022-12-23T07:29:00.797Z,3.40
2022-12-23T07:31:30.007Z,2.80
2022-12-23T07:33:59.800Z,2.73
2022-12-23T07:36:29.003Z,2.17
2022-12-23T07:38:58.263Z,3.00
2022-12-23T07:41:27.492Z,2.37
2022-12-23T07:43:58.147Z,3.30
2022-12-23T07:46:27.434Z,2.70
2022-12-23T07:48:56.817Z,2.70
2022-12-23T07:51:26.203Z,2.63
2022-12-23T07:53:55.337Z,2.77
2022-12-23T07:56:24.616Z,2.47
2022-12-23T07:58:54.776Z,2.93
2022-12-23T08:01:25.574Z,3.23
2022-12-23T08:03:54.963Z,2.00
2022-12-23T08:06:24.329Z,3.73
2022-12-23T08:08:53.494Z,2.50
2022-12-23T08:11:22.770Z,3.67
2022-12-23T08:13:52.925Z,3.53
2022-12-23T08:16:22.279Z,2.97
2022-12-23T08:18:52.974Z,3.60
2022-12-23T08:21:22.331Z,4.20
2022-12-23T08:23:51.560Z,3.33
2022-12-23T08:26:22.018Z,3.13
2022-12-23T08:28:53.635Z,2.20
2022-12-23T08:31:24.520Z,3.17
2022-12-23T08:33:56.402Z,3.03
2022-12-23T08:36:26.828Z,6.87
2022-12-23T08:38:56.658Z,3.73
2022-12-23T08:41:26.998Z,2.30
2022-12-23T08:43:56.240Z,4.33
2022-12-23T08:46:25.816Z,2.73
2022-12-23T08:48:57.416Z,2.10
2022-12-23T08:51:27.463Z,4.40
2022-12-23T08:54:00.540Z,3.50
2022-12-23T08:56:31.263Z,2.50
2022-12-23T08:59:00.685Z,2.10
2022-12-23T09:01:31.744Z,2.00
2022-12-23T09:04:03.915Z,5.57
2022-12-23T09:06:35.023Z,2.93
2022-12-23T09:09:04.380Z,2.13
2022-12-23T09:11:33.568Z,2.30
2022-12-23T09:14:03.422Z,2.57
2022-12-23T09:16:33.142Z,2.23
2022-12-23T09:19:04.039Z,2.50
2022-12-23T09:21:33.389Z,2.20
2022-12-23T09:24:02.808Z,2.60
2022-12-23T09:26:32.568Z,2.93
2022-12-23T09:29:01.966Z,3.03
2022-12-23T09:31:36.795Z,2.00
2022-12-23T09:34:08.410Z,2.00
2022-12-23T09:36:38.475Z,2.17
2022-12-23T09:39:07.603Z,2.03
2022-12-23T09:41:48.980Z,3.13
2022-12-23T09:44:41.824Z,3.60
2022-12-23T09:47:13.643Z,3.67
2022-12-23T09:49:46.934Z,2.27
2022-12-23T09:52:19.035Z,2.20
2022-12-23T09:54:50.801Z,2.90
2022-12-23T09:57:23.506Z,2.67
2022-12-23T10:00:07.892Z,2.93
2022-12-23T10:02:52.747Z,2.07
2022-12-23T10:05:31.586Z,1.73
2022-12-23T10:08:03.964Z,3.13
2022-12-23T10:10:36.579Z,2.77
2022-12-23T10:13:07.978Z,2.17
2022-12-23T10:15:39.440Z,2.47
2022-12-23T10:18:14.581Z,2.63
2022-12-23T10:20:48.112Z,2.13
2022-12-23T10:23:19.195Z,2.40
2022-12-23T10:25:51.864Z,1.67
2022-12-23T10:28:21.386Z,3.47
2022-12-23T10:31:23.983Z,2.00
2022-12-23T10:33:48.227Z,2.37
2022-12-23T10:36:22.460Z,2.50
2022-12-23T10:38:56.008Z,1.73
2022-12-23T10:41:29.898Z,3.70
2022-12-23T10:44:04.377Z,2.00
2022-12-23T10:46:39.743Z,1.80
2022-12-23T10:49:15.592Z,1.80
2022-12-23T10:51:48.393Z,4.83
2022-12-23T10:54:19.399Z,2.27
2022-12-23T10:56:48.935Z,2.40
2022-12-23T10:59:18.623Z,2.10
2022-12-23T11:01:50.560Z,3.23
2022-12-23T11:04:20.731Z,2.10
2022-12-23T11:07:18.217Z,7.47
2022-12-23T11:09:44.275Z,3.30
2022-12-23T11:12:14.308Z,2.80
2022-12-23T11:14:44.768Z,2.07
2022-12-23T11:17:23.944Z,1.70
2022-12-23T11:20:08.995Z,1.80
2022-12-23T11:22:48.700Z,2.27
2022-12-23T11:25:28.178Z,1.80
2022-12-23T11:27:59.603Z,2.13
2022-12-23T11:30:29.180Z,2.70
2022-12-23T11:32:58.562Z,2.40
2022-12-23T11:35:29.040Z,2.60
2022-12-23T11:38:00.866Z,2.37
2022-12-23T11:40:31.716Z,3.33
2022-12-23T11:43:03.101Z,1.80
2022-12-23T11:45:33.621Z,3.10
2022-12-23T11:48:02.995Z,2.07
2022-12-23T11:50:34.455Z,1.77
2022-12-23T11:53:06.748Z,2.33
2022-12-23T11:55:36.244Z,1.93
2022-12-23T11:58:06.101Z,2.00
2022-12-23T12:00:37.211Z,2.40
2022-12-23T12:03:08.153Z,3.23
2022-12-23T12:05:39.091Z,2.20
2022-12-23T12:08:12.963Z,2.60
2022-12-23T12:10:42.404Z,2.20
2022-12-23T12:13:27.605Z,4.20
2022-12-23T12:16:00.025Z,3.47
2022-12-23T12:18:29.568Z,3.60
2022-12-23T12:21:01.222Z,4.50
2022-12-23T12:23:36.612Z,3.20
2022-12-23T12:26:08.444Z,2.40
2022-12-23T12:28:40.640Z,2.50
2022-12-23T12:31:17.254Z,1.93
2022-12-23T12:33:49.963Z,2.10
2022-12-23T12:36:22.347Z,1.70
2022-12-23T12:38:54.216Z,2.00
2022-12-23T12:41:25.077Z,1.80
2022-12-23T12:43:58.427Z,2.77
2022-12-23T12:46:32.852Z,1.90
2022-12-23T12:49:04.735Z,2.10
2022-12-23T12:51:35.938Z,1.60
2022-12-23T12:54:12.960Z,1.70
2022-12-23T12:56:45.598Z,1.70
2022-12-23T12:59:18.534Z,1.73
2022-12-23T13:01:55.188Z,2.20
2022-12-23T13:04:48.262Z,1.57
2022-12-23T13:07:21.457Z,1.90
2022-12-23T13:09:59.130Z,2.13
2022-12-23T13:12:35.190Z,2.00
2022-12-23T13:15:06.840Z,3.00
2022-12-23T13:17:40.614Z,2.33
2022-12-23T13:20:12.863Z,1.63
2022-12-23T13:22:42.280Z,1.60
2022-12-23T13:25:15.569Z,2.20
2022-12-23T13:27:47.092Z,2.73
2022-12-23T13:30:18.065Z,1.73
2022-12-23T13:32:56.423Z,2.30
2022-12-23T13:35:33.979Z,1.67
2022-12-23T13:38:10.713Z,1.70
2022-12-23T13:40:44.793Z,1.50
2022-12-23T13:43:15.692Z,1.60
2022-12-23T13:45:45.435Z,1.40
2022-12-23T13:48:26.794Z,1.30
2022-12-23T13:51:00.259Z,1.60
2022-12-23T13:53:33.853Z,1.37
2022-12-23T13:56:10.930Z,1.30
2022-12-23T13:58:41.093Z,1.23
2022-12-23T14:01:29.616Z,1.50
2022-12-23T14:03:59.200Z,1.60
2022-12-23T14:06:43.451Z,1.80
2022-12-23T14:09:16.486Z,1.70
2022-12-23T14:11:47.751Z,1.70
2022-12-23T14:14:22.045Z,1.40
2022-12-23T14:16:58.291Z,1.50
2022-12-23T14:19:42.605Z,1.60
2022-12-23T14:22:29.412Z,1.40
2022-12-23T14:25:13.468Z,1.30
2022-12-23T14:27:48.909Z,1.40
2022-12-23T14:30:19.271Z,1.70
2022-12-23T14:32:50.110Z,2.30
2022-12-23T14:35:22.311Z,2.40
2022-12-23T14:38:12.408Z,1.50
2022-12-23T14:40:52.705Z,1.80
2022-12-23T14:43:56.242Z,1.50
2022-12-23T14:46:57.768Z,2.00
2022-12-23T14:49:44.748Z,1.70
2022-12-23T14:52:32.389Z,1.77
2022-12-23T14:55:30.768Z,1.20
2022-12-23T14:58:07.883Z,0.80
2022-12-23T15:00:47.123Z,1.50
2022-12-23T15:03:53.299Z,1.17
2022-12-23T15:06:31.951Z,0.97
2022-12-23T15:09:01.335Z,1.30
2022-12-23T15:11:31.396Z,0.80
2022-12-23T15:14:01.706Z,0.80
2022-12-23T15:16:32.974Z,1.10
2022-12-23T15:19:03.627Z,1.00
2022-12-23T15:21:36.358Z,1.23
2022-12-23T15:24:05.768Z,1.33
2022-12-23T15:26:35.078Z,0.90
2022-12-23T15:29:04.360Z,1.60
2022-12-23T15:31:34.624Z,1.40
2022-12-23T15:34:11.714Z,1.30
2022-12-23T15:36:48.375Z,1.47
2022-12-23T15:39:21.162Z,1.30
2022-12-23T15:41:50.836Z,0.90
2022-12-23T15:44:21.621Z,0.90
2022-12-23T15:46:51.733Z,1.13
2022-12-23T15:49:21.905Z,1.10
2022-12-23T15:52:15.030Z,1.20
2022-12-23T15:54:46.297Z,0.93
2022-12-23T15:57:19.551Z,0.80
2022-12-23T15:59:48.819Z,0.83
2022-12-23T16:02:58.334Z,0.70
2022-12-23T16:05:09.972Z,1.10
2022-12-23T16:07:41.851Z,0.93
2022-12-23T16:10:16.028Z,0.90
2022-12-23T16:12:46.114Z,1.80
2022-12-23T16:15:21.649Z,1.27
2022-12-23T16:17:50.942Z,0.87
2022-12-23T16:20:28.907Z,1.00
2022-12-23T16:23:00.809Z,0.87
2022-12-23T16:25:32.404Z,1.00
2022-12-23T16:28:04.891Z,0.80
2022-12-23T16:30:35.336Z,0.93
2022-12-23T16:33:05.404Z,1.20
2022-12-23T16:35:36.431Z,1.63
2022-12-23T16:38:18.445Z,0.80
2022-12-23T16:40:48.434Z,0.83
2022-12-23T16:43:18.010Z,0.80
2022-12-23T16:45:48.004Z,1.07
2022-12-23T16:48:20.904Z,1.60
2022-12-23T16:50:50.725Z,0.90
2022-12-23T16:53:21.421Z,1.47
2022-12-23T16:55:55.341Z,1.10
2022-12-23T16:58:29.451Z,1.10
2022-12-23T17:00:58.744Z,1.30
2022-12-23T17:03:28.122Z,1.43
2022-12-23T17:05:57.471Z,1.60
2022-12-23T17:08:28.349Z,1.40
2022-12-23T17:10:59.032Z,1.63
2022-12-23T17:13:28.330Z,1.53
2022-12-23T17:15:57.590Z,1.13
2022-12-23T17:18:27.067Z,0.90
2022-12-23T17:20:56.281Z,0.90
2022-12-23T17:23:27.921Z,1.30
2022-12-23T17:25:58.580Z,1.70
2022-12-23T17:28:30.590Z,1.10
2022-12-23T17:31:00.256Z,1.20
2022-12-23T17:33:30.757Z,1.30
2022-12-23T17:36:00.136Z,2.40
2022-12-23T17:38:30.277Z,1.20
2022-12-23T17:41:01.244Z,1.60
2022-12-23T17:43:30.528Z,1.60
2022-12-23T17:45:59.814Z,2.27
2022-12-23T17:48:31.897Z,1.97
2022-12-23T17:51:01.528Z,2.60
2022-12-23T17:53:30.760Z,2.23
2022-12-23T17:56:01.438Z,2.07
2022-12-23T17:58:30.642Z,2.50
2022-12-23T18:01:01.845Z,2.40
2022-12-23T18:03:31.063Z,2.40
2022-12-23T18:06:02.246Z,2.53
2022-12-23T18:08:31.771Z,2.17
2022-12-23T18:11:02.989Z,2.40
2022-12-23T18:13:32.311Z,2.70
2022-12-23T18:16:01.719Z,2.10
2022-12-23T18:18:37.993Z,2.40
2022-12-23T18:21:15.956Z,3.30
2022-12-23T18:23:45.218Z,2.60
2022-12-23T18:26:16.835Z,2.20
2022-12-23T18:28:46.461Z,2.80
2022-12-23T18:31:17.222Z,2.70
2022-12-23T18:33:46.638Z,2.40
2022-12-23T18:36:23.568Z,2.97
2022-12-23T18:38:53.234Z,3.60
2022-12-23T18:41:24.469Z,2.40
2022-12-23T18:43:54.193Z,2.37
2022-12-23T18:46:23.760Z,2.20
2022-12-23T18:48:54.062Z,2.50
2022-12-23T18:51:23.654Z,2.30
2022-12-23T18:53:53.127Z,2.60
2022-12-23T18:56:24.262Z,2.30
2022-12-23T18:58:54.214Z,2.33
2022-12-23T19:01:23.450Z,4.43
2022-12-23T19:03:52.745Z,2.40
2022-12-23T19:06:21.985Z,2.50
2022-12-23T19:08:51.242Z,1.97
2022-12-23T19:11:21.580Z,1.90
2022-12-23T19:13:52.349Z,2.20
2022-12-23T19:16:22.664Z,2.17
2022-12-23T19:18:52.300Z,2.23
2022-12-23T19:21:22.267Z,2.33
2022-12-23T19:23:51.472Z,2.30
2022-12-23T19:26:20.835Z,2.20
2022-12-23T19:28:50.074Z,2.20
2022-12-23T19:31:20.776Z,2.40
2022-12-23T19:33:50.013Z,2.03
2022-12-23T19:36:22.944Z,3.50
2022-12-23T19:38:52.622Z,3.03
2022-12-23T19:41:21.789Z,2.10
2022-12-23T19:43:51.073Z,2.97
2022-12-23T19:46:21.899Z,2.60
2022-12-23T19:48:54.415Z,2.13
2022-12-23T19:51:23.769Z,2.50
2022-12-23T19:53:53.587Z,1.90
2022-12-23T19:56:22.923Z,3.07
2022-12-23T19:58:52.186Z,2.10
2022-12-23T20:01:24.154Z,1.87
2022-12-23T20:03:54.244Z,4.07
2022-12-23T20:06:24.312Z,2.07
2022-12-23T20:08:59.736Z,1.97
2022-12-23T20:11:30.987Z,2.10
2022-12-23T20:14:00.495Z,2.20
2022-12-23T20:16:31.570Z,1.70
2022-12-23T20:19:00.870Z,3.03
2022-12-23T20:21:30.034Z,2.20
2022-12-23T20:23:59.539Z,2.00
2022-12-23T20:26:29.312Z,4.87
2022-12-23T20:28:58.854Z,1.73
2022-12-23T20:31:29.012Z,2.37
2022-12-23T20:34:00.002Z,1.63
2022-12-23T20:36:30.047Z,1.60
2022-12-23T20:38:59.224Z,1.87
2022-12-23T20:41:29.361Z,1.40
2022-12-23T20:46:48.076Z,2.00
2022-12-23T20:49:18.751Z,1.57
2022-12-23T20:51:48.416Z,1.40
2022-12-23T20:54:17.609Z,1.60
2022-12-23T20:56:47.303Z,2.30
2022-12-23T20:59:16.679Z,1.57
2022-12-23T21:01:46.634Z,2.00
2022-12-23T21:04:17.055Z,1.50
2022-12-23T21:06:47.736Z,1.77
2022-12-23T21:09:17.498Z,2.20
2022-12-23T21:11:47.746Z,1.70
2022-12-23T21:14:17.425Z,2.10
2022-12-23T21:16:46.793Z,2.17
2022-12-23T21:19:17.883Z,2.27
2022-12-23T21:21:49.519Z,2.10
2022-12-23T21:24:19.371Z,2.83
2022-12-23T21:26:55.742Z,2.13
2022-12-23T21:29:25.971Z,2.20
2022-12-23T21:31:55.421Z,2.30
2022-12-23T21:34:24.876Z,2.70
2022-12-23T21:36:55.744Z,9.40
2022-12-23T21:39:25.090Z,3.13
2022-12-23T21:41:54.203Z,1.80
2022-12-23T21:44:23.421Z,2.10
2022-12-23T21:46:53.212Z,4.20
2022-12-23T21:49:22.677Z,3.67
2022-12-23T21:51:51.837Z,3.27
2022-12-23T21:54:22.646Z,3.10
2022-12-23T21:56:51.804Z,2.50
2022-12-23T21:59:20.986Z,3.17
2022-12-23T22:01:51.127Z,2.07
2022-12-23T22:04:20.308Z,3.40
2022-12-23T22:06:49.555Z,3.17
2022-12-23T22:09:19.867Z,3.40
2022-12-23T22:11:50.612Z,2.90
2022-12-23T22:14:20.953Z,2.73
2022-12-23T22:16:50.281Z,2.60
2022-12-23T22:19:19.540Z,3.50
2022-12-23T22:21:48.712Z,3.33
2022-12-23T22:24:17.926Z,2.60
2022-12-23T22:26:47.390Z,2.20
2022-12-23T22:29:18.085Z,2.03
2022-12-23T22:31:48.283Z,3.30
2022-12-23T22:34:18.622Z,3.63
2022-12-23T22:36:48.237Z,2.30
2022-12-23T22:39:21.213Z,2.40
2022-12-23T22:41:51.917Z,3.03
2022-12-23T22:44:23.074Z,4.00
2022-12-23T22:46:52.641Z,2.30
2022-12-23T22:49:21.986Z,4.57
2022-12-23T22:51:51.267Z,2.53
2022-12-23T22:54:20.493Z,2.63
2022-12-23T22:56:49.940Z,3.07
2022-12-23T22:59:24.501Z,3.70
2022-12-23T23:01:54.532Z,3.20
2022-12-23T23:04:23.900Z,2.60
2022-12-23T23:06:53.118Z,2.13
2022-12-23T23:09:22.922Z,2.17
2022-12-23T23:11:52.628Z,2.80
2022-12-23T23:14:23.808Z,3.40
2022-12-23T23:16:53.158Z,1.90
2022-12-23T23:19:22.606Z,2.53
2022-12-23T23:21:53.611Z,2.40
2022-12-23T23:24:27.711Z,3.00
2022-12-23T23:27:00.589Z,2.83
2022-12-23T23:29:31.359Z,2.10
2022-12-23T23:32:01.140Z,2.47
2022-12-23T23:34:30.772Z,2.63
2022-12-23T23:37:00.038Z,2.13
2022-12-23T23:39:29.260Z,1.90
2022-12-23T23:41:58.662Z,3.13
2022-12-23T23:44:27.878Z,3.00
2022-12-23T23:46:58.586Z,2.43
2022-12-23T23:49:27.859Z,1.60
2022-12-23T23:51:57.002Z,1.60
2022-12-23T23:54:26.247Z,1.70
2022-12-23T23:56:55.505Z,2.07
2022-12-23T23:59:24.873Z,1.70
